createdAt,value
2022-09-26T00:01:44.077Z,15.00
2022-09-26T00:04:19.241Z,14.96
2022-09-26T00:06:51.854Z,14.92
2022-09-26T00:09:20.469Z,14.90
2022-09-26T00:11:49.227Z,14.86
2022-09-26T00:14:20.810Z,14.83
2022-09-26T00:16:51.530Z,14.78
2022-09-26T00:19:20.630Z,14.70
2022-09-26T00:21:49.776Z,14.67
2022-09-26T00:24:18.586Z,14.67
2022-09-26T00:26:47.143Z,14.64
2022-09-26T00:29:15.795Z,14.61
2022-09-26T00:31:46.144Z,14.54
2022-09-26T00:34:18.357Z,14.40
2022-09-26T00:36:47.011Z,14.20
2022-09-26T00:39:17.092Z,14.13
2022-09-26T00:41:46.175Z,14.12
2022-09-26T00:44:44.269Z,14.08
2022-09-26T00:47:27.815Z,14.00
2022-09-26T00:50:02.227Z,13.97
2022-09-26T00:52:35.949Z,13.95
2022-09-26T00:55:06.569Z,13.93
2022-09-26T00:57:39.350Z,13.93
2022-09-26T01:00:12.201Z,13.88
2022-09-26T01:02:41.208Z,13.88
2022-09-26T01:05:14.525Z,13.87
2022-09-26T01:07:43.257Z,13.84
2022-09-26T01:10:12.352Z,13.82
2022-09-26T01:12:42.485Z,13.78
2022-09-26T01:15:13.291Z,13.74
2022-09-26T01:17:44.453Z,13.71
2022-09-26T01:20:36.565Z,13.67
2022-09-26T01:23:42.195Z,13.63
2022-09-26T01:26:34.574Z,13.56
2022-09-26T01:29:40.934Z,13.53
2022-09-26T01:32:39.169Z,13.48
2022-09-26T01:35:17.891Z,13.44
2022-09-26T01:37:56.786Z,13.41
2022-09-26T01:40:33.581Z,13.38
2022-09-26T01:43:12.563Z,13.33
2022-09-26T01:45:50.524Z,13.27
2022-09-26T01:48:26.641Z,13.27
2022-09-26T01:51:00.168Z,13.22
2022-09-26T01:53:34.477Z,13.16
2022-09-26T01:56:06.294Z,13.12
2022-09-26T01:58:38.324Z,13.09
2022-09-26T02:01:11.765Z,13.04
2022-09-26T02:03:46.983Z,13.01
2022-09-26T02:06:20.027Z,13.00
2022-09-26T02:08:53.370Z,12.95
2022-09-26T02:11:22.341Z,12.90
2022-09-26T02:13:53.343Z,12.84
2022-09-26T02:16:25.505Z,12.76
2022-09-26T02:19:01.447Z,12.73
2022-09-26T02:21:30.182Z,12.66
2022-09-26T02:23:58.900Z,12.63
2022-09-26T02:26:27.425Z,12.64
2022-09-26T02:28:55.863Z,12.61
2022-09-26T02:31:27.897Z,12.49
2022-09-26T02:33:58.754Z,12.40
2022-09-26T02:36:27.162Z,12.33
2022-09-26T02:38:55.593Z,12.25
2022-09-26T02:41:32.219Z,12.22
2022-09-26T02:44:27.389Z,12.12
2022-09-26T02:47:12.010Z,12.14
2022-09-26T02:50:08.574Z,11.62
2022-09-26T02:52:51.812Z,11.68
2022-09-26T02:55:23.401Z,11.78
2022-09-26T02:58:04.141Z,11.77
2022-09-26T03:00:46.556Z,11.71
2022-09-26T03:03:21.583Z,11.77
2022-09-26T03:05:55.027Z,11.80
2022-09-26T03:08:27.399Z,11.86
2022-09-26T03:11:00.443Z,11.87
2022-09-26T03:13:34.392Z,11.88
2022-09-26T03:16:05.032Z,11.90
2022-09-26T03:18:38.726Z,11.90
2022-09-26T03:21:08.953Z,11.92
2022-09-26T03:23:37.612Z,11.91
2022-09-26T03:26:10.701Z,11.92
2022-09-26T03:28:39.593Z,11.88
2022-09-26T03:31:08.085Z,11.85
2022-09-26T03:33:36.813Z,11.87
2022-09-26T03:36:09.716Z,11.85
2022-09-26T03:38:38.436Z,11.85
2022-09-26T03:41:07.707Z,11.83
2022-09-26T03:43:36.761Z,11.80
2022-09-26T03:46:06.473Z,11.79
2022-09-26T03:48:35.781Z,11.78
2022-09-26T03:51:04.800Z,11.77
2022-09-26T03:53:40.013Z,11.78
2022-09-26T03:56:10.382Z,11.75
2022-09-26T03:58:39.087Z,11.75
2022-09-26T04:01:09.530Z,11.69
2022-09-26T04:03:40.033Z,11.56
2022-09-26T04:06:10.150Z,11.54
2022-09-26T04:08:41.581Z,11.56
2022-09-26T04:11:11.949Z,11.56
2022-09-26T04:13:51.239Z,11.57
2022-09-26T04:16:21.542Z,11.56
2022-09-26T04:18:50.598Z,11.55
2022-09-26T04:21:19.082Z,11.52
2022-09-26T04:23:49.824Z,11.55
2022-09-26T04:26:23.398Z,11.59
2022-09-26T04:28:55.623Z,11.59
2022-09-26T04:31:25.022Z,11.67
2022-09-26T04:33:55.113Z,11.63
2022-09-26T04:36:24.085Z,11.64
2022-09-26T04:38:54.043Z,11.63
2022-09-26T04:41:23.486Z,11.63
2022-09-26T04:43:52.776Z,11.62
2022-09-26T04:46:28.270Z,11.59
2022-09-26T04:49:01.341Z,11.55
2022-09-26T04:51:31.401Z,11.51
2022-09-26T04:54:07.477Z,11.55
2022-09-26T04:56:36.195Z,11.51
2022-09-26T04:59:04.740Z,11.49
2022-09-26T05:01:33.342Z,11.52
2022-09-26T05:04:02.041Z,11.53
2022-09-26T05:06:30.608Z,11.51
2022-09-26T05:09:00.829Z,11.51
2022-09-26T05:11:29.517Z,11.53
2022-09-26T05:13:58.028Z,11.54
2022-09-26T05:16:28.560Z,11.55
2022-09-26T05:18:57.357Z,11.58
2022-09-26T05:21:26.050Z,11.61
2022-09-26T05:24:11.716Z,11.64
2022-09-26T05:26:45.629Z,11.67
2022-09-26T05:29:14.251Z,11.68
2022-09-26T05:31:43.720Z,11.72
2022-09-26T05:34:19.227Z,11.74
2022-09-26T05:36:48.969Z,11.76
2022-09-26T05:39:36.769Z,11.77
2022-09-26T05:42:10.313Z,11.80
2022-09-26T05:44:39.316Z,11.79
2022-09-26T05:47:07.875Z,11.84
2022-09-26T05:49:36.386Z,11.85
2022-09-26T05:52:05.426Z,11.85
2022-09-26T05:54:33.898Z,11.86
2022-09-26T05:57:02.483Z,11.86
2022-09-26T05:59:32.666Z,11.86
2022-09-26T06:02:01.335Z,11.81
2022-09-26T06:04:29.944Z,11.87
2022-09-26T06:06:58.440Z,11.89
2022-09-26T06:09:26.943Z,11.89
2022-09-26T06:11:55.423Z,11.91
2022-09-26T06:14:25.660Z,11.95
2022-09-26T06:16:55.676Z,11.89
2022-09-26T06:19:24.269Z,11.98
2022-09-26T06:21:52.932Z,12.00
2022-09-26T06:24:21.516Z,12.02
2022-09-26T06:26:50.024Z,12.04
2022-09-26T06:29:18.918Z,12.04
2022-09-26T06:31:48.008Z,12.06
2022-09-26T06:34:18.133Z,12.07
2022-09-26T06:36:47.161Z,12.12
2022-09-26T06:39:16.231Z,12.14
2022-09-26T06:41:45.618Z,12.15
2022-09-26T06:44:14.673Z,12.20
2022-09-26T06:46:43.486Z,12.22
2022-09-26T06:49:12.126Z,12.22
2022-09-26T06:51:42.152Z,12.25
2022-09-26T06:54:10.624Z,12.27
2022-09-26T06:56:39.007Z,12.30
2022-09-26T06:59:07.793Z,12.32
2022-09-26T07:01:36.431Z,12.30
2022-09-26T07:04:05.541Z,12.32
2022-09-26T07:06:34.030Z,12.33
2022-09-26T07:09:07.571Z,12.31
2022-09-26T07:12:12.444Z,12.37
2022-09-26T07:14:29.311Z,12.36
2022-09-26T07:16:57.852Z,12.41
2022-09-26T07:19:26.398Z,12.43
2022-09-26T07:21:55.410Z,12.46
2022-09-26T07:24:27.480Z,12.52
2022-09-26T07:26:56.057Z,12.55
2022-09-26T07:29:24.745Z,12.61
2022-09-26T07:31:53.311Z,12.62
2022-09-26T07:34:25.312Z,12.64
2022-09-26T07:36:54.411Z,12.72
2022-09-26T07:39:24.626Z,12.79
2022-09-26T07:41:53.403Z,12.84
2022-09-26T07:47:27.555Z,13.22
2022-09-26T07:50:14.881Z,13.28
2022-09-26T07:52:44.508Z,13.30
2022-09-26T07:55:16.419Z,13.33
2022-09-26T07:57:47.288Z,13.36
2022-09-26T08:00:17.496Z,13.34
2022-09-26T08:02:47.195Z,13.31
2022-09-26T08:05:20.434Z,13.30
2022-09-26T08:07:49.611Z,13.34
2022-09-26T08:10:22.302Z,13.39
2022-09-26T08:12:51.611Z,13.35
2022-09-26T08:15:20.293Z,13.35
2022-09-26T08:17:48.757Z,13.42
2022-09-26T08:20:17.410Z,13.47
2022-09-26T08:22:45.898Z,13.45
2022-09-26T08:25:14.528Z,13.53
2022-09-26T08:27:45.265Z,13.55
2022-09-26T08:30:13.970Z,13.58
2022-09-26T08:32:42.746Z,13.63
2022-09-26T08:35:15.239Z,13.60
2022-09-26T08:37:43.722Z,13.75
2022-09-26T08:40:12.995Z,13.77
2022-09-26T08:42:57.780Z,13.78
2022-09-26T08:45:55.222Z,13.79
2022-09-26T08:48:44.693Z,13.82
2022-09-26T08:51:29.174Z,13.86
2022-09-26T08:54:06.213Z,13.84
2022-09-26T08:56:40.820Z,13.98
2022-09-26T08:59:19.993Z,13.99
2022-09-26T09:01:52.018Z,14.04
2022-09-26T09:04:25.921Z,14.06
2022-09-26T09:07:00.205Z,14.10
2022-09-26T09:09:28.756Z,14.17
2022-09-26T09:12:10.135Z,14.23
2022-09-26T09:15:13.716Z,14.28
2022-09-26T09:17:49.778Z,14.31
2022-09-26T09:20:22.903Z,14.35
2022-09-26T09:23:24.005Z,14.37
2022-09-26T09:29:39.311Z,14.38
2022-09-26T09:32:14.121Z,14.42
2022-09-26T09:34:44.632Z,14.39
2022-09-26T09:37:17.205Z,14.44
2022-09-26T09:39:49.056Z,14.47
2022-09-26T09:42:24.528Z,14.51
2022-09-26T09:44:57.271Z,14.55
2022-09-26T09:47:30.454Z,14.60
2022-09-26T09:50:00.616Z,14.64
2022-09-26T09:52:51.425Z,14.64
2022-09-26T09:55:34.319Z,14.69
2022-09-26T09:58:32.188Z,14.75
2022-09-26T10:01:10.093Z,14.83
2022-09-26T10:03:49.479Z,14.84
2022-09-26T10:06:45.861Z,14.86
2022-09-26T10:09:38.561Z,14.91
2022-09-26T10:12:13.711Z,14.93
2022-09-26T10:14:47.825Z,14.98
2022-09-26T10:17:23.215Z,15.00
2022-09-26T10:19:53.663Z,15.04
2022-09-26T10:22:29.630Z,15.03
2022-09-26T10:25:04.145Z,15.10
2022-09-26T10:27:45.237Z,14.99
2022-09-26T10:30:33.894Z,15.00
2022-09-26T10:33:03.722Z,14.95
2022-09-26T10:35:42.817Z,15.00
2022-09-26T10:38:21.996Z,15.04
2022-09-26T10:40:55.088Z,15.07
2022-09-26T10:43:28.819Z,15.06
2022-09-26T10:46:03.177Z,15.00
2022-09-26T10:48:47.318Z,15.02
2022-09-26T10:51:30.378Z,15.04
2022-09-26T10:54:05.165Z,15.02
2022-09-26T10:56:40.124Z,14.94
2022-09-26T10:59:11.922Z,14.89
2022-09-26T11:01:44.639Z,14.86
2022-09-26T11:04:37.500Z,14.80
2022-09-26T11:07:09.691Z,14.71
2022-09-26T11:09:39.852Z,14.73
2022-09-26T11:12:29.990Z,14.73
2022-09-26T11:15:02.215Z,14.72
2022-09-26T11:17:45.304Z,14.76
2022-09-26T11:20:25.787Z,14.74
2022-09-26T11:23:03.948Z,14.63
2022-09-26T11:25:40.811Z,14.46
2022-09-26T11:28:14.738Z,14.47
2022-09-26T11:30:48.497Z,14.59
2022-09-26T11:33:19.125Z,14.64
2022-09-26T11:35:59.783Z,14.62
2022-09-26T11:38:39.746Z,14.72
2022-09-26T11:41:36.757Z,14.77
2022-09-26T11:44:43.363Z,14.71
2022-09-26T11:47:37.342Z,14.76
2022-09-26T11:50:41.189Z,14.72
2022-09-26T11:53:26.882Z,14.56
2022-09-26T11:56:11.995Z,14.54
2022-09-26T11:58:49.497Z,14.57
2022-09-26T12:01:27.632Z,14.63
2022-09-26T12:04:41.396Z,14.67
2022-09-26T12:07:17.778Z,14.74
2022-09-26T12:10:01.782Z,14.80
2022-09-26T12:12:42.648Z,14.74
2022-09-26T12:15:23.930Z,14.75
2022-09-26T12:18:06.567Z,14.78
2022-09-26T12:20:44.670Z,14.81
2022-09-26T12:23:21.975Z,14.86
2022-09-26T12:26:00.997Z,14.86
2022-09-26T12:28:53.226Z,14.84
2022-09-26T12:31:34.114Z,14.82
2022-09-26T12:34:38.138Z,14.64
2022-09-26T12:37:19.266Z,14.64
2022-09-26T12:40:10.512Z,14.58
2022-09-26T12:42:57.024Z,14.61
2022-09-26T12:45:53.029Z,14.53
2022-09-26T12:48:32.790Z,14.55
2022-09-26T12:51:20.790Z,14.65
2022-09-26T12:54:06.319Z,14.70
2022-09-26T12:56:47.910Z,14.65
2022-09-26T12:59:38.501Z,14.65
2022-09-26T13:02:24.556Z,14.69
2022-09-26T13:05:20.255Z,14.62
2022-09-26T13:08:02.417Z,14.62
2022-09-26T13:10:39.751Z,14.57
2022-09-26T13:13:52.865Z,14.55
2022-09-26T13:16:31.981Z,14.51
2022-09-26T13:19:10.446Z,14.56
2022-09-26T13:21:46.371Z,14.63
2022-09-26T13:24:20.706Z,14.60
2022-09-26T13:26:55.521Z,14.68
2022-09-26T13:29:29.002Z,14.69
2022-09-26T13:32:07.441Z,14.70
2022-09-26T13:34:41.893Z,14.71
2022-09-26T13:37:20.896Z,14.66
2022-09-26T13:39:54.176Z,14.70
2022-09-26T13:42:33.207Z,14.75
2022-09-26T13:45:08.445Z,14.67
2022-09-26T13:47:43.240Z,14.78
2022-09-26T13:50:25.196Z,14.82
2022-09-26T13:53:05.600Z,14.93
2022-09-26T13:55:34.420Z,15.03
2022-09-26T13:58:07.344Z,15.08
2022-09-26T14:00:57.839Z,15.11
2022-09-26T14:03:44.808Z,15.16
2022-09-26T14:06:32.769Z,15.18
2022-09-26T14:09:24.998Z,15.20
2022-09-26T14:12:19.242Z,15.21
2022-09-26T14:14:53.735Z,15.27
2022-09-26T14:18:03.795Z,15.43
2022-09-26T14:20:40.903Z,15.61
2022-09-26T14:23:36.320Z,15.80
2022-09-26T14:26:10.659Z,15.89
2022-09-26T14:28:40.390Z,15.94
2022-09-26T14:31:39.358Z,15.99
2022-09-26T14:34:24.867Z,16.02
2022-09-26T14:36:55.096Z,16.09
2022-09-26T14:39:33.913Z,16.13
2022-09-26T14:42:19.122Z,16.32
2022-09-26T14:44:54.893Z,16.45
2022-09-26T14:47:24.989Z,16.53
2022-09-26T14:49:59.530Z,16.52
2022-09-26T14:52:28.311Z,16.47
2022-09-26T14:55:02.737Z,16.45
2022-09-26T14:57:34.275Z,16.49
2022-09-26T15:00:04.002Z,16.50
2022-09-26T15:02:41.565Z,16.49
2022-09-26T15:05:24.389Z,16.52
2022-09-26T15:07:54.119Z,16.70
2022-09-26T15:10:38.251Z,16.82
2022-09-26T15:13:22.217Z,16.87
2022-09-26T15:15:58.202Z,16.89
2022-09-26T15:18:36.359Z,16.90
2022-09-26T15:21:11.844Z,16.88
2022-09-26T15:23:49.602Z,16.76
2022-09-26T15:26:23.524Z,16.63
2022-09-26T15:28:53.726Z,16.44
2022-09-26T15:31:25.685Z,16.47
2022-09-26T15:34:00.567Z,16.51
2022-09-26T15:36:31.470Z,16.49
2022-09-26T15:39:00.557Z,16.50
2022-09-26T15:41:47.935Z,16.49
2022-09-26T15:44:21.806Z,16.51
2022-09-26T15:46:52.959Z,16.51
2022-09-26T15:49:33.315Z,16.51
2022-09-26T15:52:04.677Z,16.41
2022-09-26T15:54:41.854Z,16.48
2022-09-26T15:57:12.079Z,16.44
2022-09-26T15:59:44.755Z,16.46
2022-09-26T16:02:23.994Z,16.46
2022-09-26T16:04:54.970Z,16.47
2022-09-26T16:07:27.291Z,16.46
2022-09-26T16:09:57.745Z,16.45
2022-09-26T16:12:30.012Z,16.46
2022-09-26T16:15:03.106Z,16.45
2022-09-26T16:17:36.483Z,16.36
2022-09-26T16:20:24.533Z,16.33
2022-09-26T16:23:00.420Z,16.27
2022-09-26T16:25:35.416Z,16.23
2022-09-26T16:28:23.559Z,16.33
2022-09-26T16:31:11.315Z,16.29
2022-09-26T16:33:41.175Z,16.26
2022-09-26T16:36:19.401Z,16.20
2022-09-26T16:38:54.579Z,16.08
2022-09-26T16:41:56.805Z,16.01
2022-09-26T16:44:30.330Z,15.94
2022-09-26T16:47:03.930Z,15.90
2022-09-26T16:49:48.712Z,15.85
2022-09-26T16:52:28.452Z,15.78
2022-09-26T16:54:57.807Z,15.72
2022-09-26T16:57:29.191Z,15.67
2022-09-26T17:00:20.669Z,15.59
2022-09-26T17:02:49.595Z,15.56
2022-09-26T17:05:20.405Z,15.51
2022-09-26T17:07:50.916Z,15.39
2022-09-26T17:10:21.173Z,15.39
2022-09-26T17:12:53.332Z,15.30
2022-09-26T17:15:29.654Z,15.24
2022-09-26T17:17:58.885Z,15.15
2022-09-26T17:20:27.513Z,15.09
2022-09-26T17:22:56.118Z,15.03
2022-09-26T17:25:25.396Z,14.99
2022-09-26T17:27:59.910Z,14.94
2022-09-26T17:30:30.224Z,14.88
2022-09-26T17:33:02.711Z,14.74
2022-09-26T17:35:35.800Z,14.68
2022-09-26T17:38:04.608Z,14.62
2022-09-26T17:40:34.787Z,14.33
2022-09-26T17:43:03.500Z,14.21
2022-09-26T17:45:36.846Z,14.14
2022-09-26T17:48:08.911Z,14.13
2022-09-26T17:50:40.115Z,14.16
2022-09-26T17:53:21.185Z,14.15
2022-09-26T17:55:53.352Z,14.09
2022-09-26T17:58:22.683Z,14.07
2022-09-26T18:00:53.731Z,13.88
2022-09-26T18:03:27.023Z,13.77
2022-09-26T18:05:56.135Z,13.72
2022-09-26T18:08:28.374Z,13.61
2022-09-26T18:10:59.753Z,13.51
2022-09-26T18:13:31.897Z,13.09
2022-09-26T18:16:02.478Z,12.99
2022-09-26T18:18:32.559Z,13.07
2022-09-26T18:21:04.278Z,13.05
2022-09-26T18:23:43.444Z,13.02
2022-09-26T18:26:21.957Z,12.96
2022-09-26T18:28:50.955Z,12.99
2022-09-26T18:31:28.424Z,13.04
2022-09-26T18:33:58.464Z,13.07
2022-09-26T18:36:30.146Z,13.05
2022-09-26T18:39:00.415Z,13.03
2022-09-26T18:41:29.886Z,12.99
2022-09-26T18:44:03.067Z,12.94
2022-09-26T18:46:44.871Z,12.94
2022-09-26T18:49:15.607Z,12.75
2022-09-26T18:51:46.685Z,12.67
2022-09-26T18:54:17.647Z,12.63
2022-09-26T18:57:05.616Z,12.53
2022-09-26T18:59:36.678Z,12.54
2022-09-26T19:02:20.940Z,12.55
2022-09-26T19:04:49.902Z,12.43
2022-09-26T19:07:21.666Z,12.22
2022-09-26T19:09:51.763Z,12.10
2022-09-26T19:12:20.601Z,11.87
2022-09-26T19:14:49.159Z,11.94
2022-09-26T19:17:19.479Z,11.85
2022-09-26T19:19:48.392Z,11.84
2022-09-26T19:22:22.881Z,11.80
2022-09-26T19:24:54.038Z,11.74
2022-09-26T19:27:33.811Z,11.68
2022-09-26T19:30:05.731Z,11.65
2022-09-26T19:32:39.271Z,11.69
2022-09-26T19:35:14.142Z,11.77
2022-09-26T19:37:42.781Z,11.77
2022-09-26T19:40:15.471Z,11.68
2022-09-26T19:42:44.615Z,11.78
2022-09-26T19:45:14.504Z,11.83
2022-09-26T19:47:47.386Z,11.88
2022-09-26T19:50:21.848Z,11.96
2022-09-26T19:52:53.667Z,11.98
2022-09-26T19:55:24.893Z,12.01
2022-09-26T19:58:13.460Z,11.99
2022-09-26T20:00:43.775Z,12.03
2022-09-26T20:03:18.812Z,12.02
2022-09-26T20:05:49.605Z,11.99
2022-09-26T20:08:19.612Z,11.99
2022-09-26T20:10:48.460Z,12.00
2022-09-26T20:13:17.183Z,12.01
2022-09-26T20:15:46.405Z,12.00
2022-09-26T20:18:20.908Z,11.99
2022-09-26T20:20:53.428Z,11.97
2022-09-26T20:23:24.508Z,11.93
2022-09-26T20:25:54.222Z,11.93
2022-09-26T20:28:22.961Z,11.87
2022-09-26T20:30:55.488Z,11.86
2022-09-26T20:33:26.885Z,11.85
2022-09-26T20:36:03.169Z,11.81
2022-09-26T20:38:35.930Z,11.80
2022-09-26T20:41:12.895Z,11.78
2022-09-26T20:43:45.032Z,11.76
2022-09-26T20:46:14.203Z,11.71
2022-09-26T20:48:47.332Z,11.67
2022-09-26T20:51:21.105Z,11.59
2022-09-26T20:53:49.908Z,11.57
2022-09-26T20:56:22.026Z,11.39
2022-09-26T20:58:50.738Z,11.39
2022-09-26T21:01:21.926Z,11.33
2022-09-26T21:03:55.392Z,11.27
2022-09-26T21:06:25.231Z,11.23
2022-09-26T21:08:53.777Z,11.09
2022-09-26T21:11:23.067Z,11.02
2022-09-26T21:13:51.810Z,10.93
2022-09-26T21:16:22.913Z,10.92
2022-09-26T21:18:54.128Z,11.03
2022-09-26T21:21:25.190Z,11.07
2022-09-26T21:23:55.253Z,11.09
2022-09-26T21:26:26.041Z,11.02
2022-09-26T21:28:56.183Z,11.10
2022-09-26T21:31:27.663Z,11.03
2022-09-26T21:33:59.735Z,11.10
2022-09-26T21:36:35.133Z,11.12
2022-09-26T21:39:04.149Z,11.12
2022-09-26T21:41:32.793Z,11.03
2022-09-26T21:44:06.296Z,10.78
2022-09-26T21:46:34.858Z,10.82
2022-09-26T21:49:04.899Z,10.81
2022-09-26T21:51:33.622Z,10.79
2022-09-26T21:54:06.380Z,10.77
2022-09-26T21:56:39.097Z,10.75
2022-09-26T21:59:08.621Z,10.76
2022-09-26T22:01:37.107Z,10.73
2022-09-26T22:04:07.226Z,10.72
2022-09-26T22:06:35.696Z,10.69
2022-09-26T22:09:04.457Z,10.75
2022-09-26T22:11:33.074Z,10.75
2022-09-26T22:14:01.483Z,10.74
2022-09-26T22:16:30.050Z,10.65
2022-09-26T22:18:58.865Z,10.68
2022-09-26T22:21:29.028Z,10.66
2022-09-26T22:23:57.607Z,10.64
2022-09-26T22:26:26.107Z,10.68
2022-09-26T22:28:54.723Z,10.61
2022-09-26T22:31:23.251Z,10.63
2022-09-26T22:33:51.809Z,10.68
2022-09-26T22:36:20.216Z,10.70
2022-09-26T22:38:50.284Z,10.74
2022-09-26T22:41:19.281Z,10.72
2022-09-26T22:43:49.401Z,11.08
2022-09-26T22:46:18.052Z,11.55
2022-09-26T22:48:48.274Z,11.47
2022-09-26T22:51:18.376Z,11.34
2022-09-26T22:53:46.998Z,11.24
2022-09-26T22:56:18.271Z,11.14
2022-09-26T22:58:48.844Z,11.12
2022-09-26T23:01:19.368Z,11.12
2022-09-26T23:03:48.027Z,11.07
2022-09-26T23:06:17.586Z,11.00
2022-09-26T23:08:46.116Z,11.03
2022-09-26T23:11:15.269Z,11.05
2022-09-26T23:13:45.819Z,11.08
2022-09-26T23:16:16.409Z,11.08
2022-09-26T23:18:45.642Z,11.10
2022-09-26T23:21:15.562Z,11.10
2022-09-26T23:23:45.582Z,11.14
2022-09-26T23:26:17.411Z,11.16
2022-09-26T23:28:47.363Z,11.17
2022-09-26T23:31:15.872Z,11.20
2022-09-26T23:33:45.157Z,11.20
2022-09-26T23:36:14.416Z,11.23
2022-09-26T23:38:43.422Z,11.23
2022-09-26T23:41:13.765Z,11.24
2022-09-26T23:43:42.958Z,11.21
2022-09-26T23:46:13.221Z,11.20
2022-09-26T23:48:41.857Z,11.23
2022-09-26T23:51:11.496Z,11.18
2022-09-26T23:53:39.953Z,11.25
2022-09-26T23:56:11.003Z,11.23
2022-09-26T23:58:40.825Z,11.22
